Time;durP1;ratioP1;P1;durP2;ratioP2;P2;SDS_P1;SDS_P2;PMS_P1;PMS_P2;Temp;Humidity;BMP_temperature;BMP_pressure;BME280_temperature;BME280_humidity;BME280_pressure;Samples;Min_cycle;Max_cycle;Signal;HPM_P1;HPM_P2
2023/12/23 00:01:37;;;;;;;8.15;1.90;;;;;;;;;;4984517;28;20715;-69
2023/12/23 00:04:04;;;;;;;3.92;2.38;;;;;;;;;;4976549;28;20294;-70
2023/12/23 00:06:32;;;;;;;5.57;2.25;;;;;;;;;;5004394;28;20273;-70
2023/12/23 00:09:00;;;;;;;6.15;1.92;;;;;;;;;;5004428;28;20247;-69
2023/12/23 00:11:29;;;;;;;6.13;2.10;;;;;;;;;;4977195;28;20237;-70
2023/12/23 00:13:57;;;;;;;4.57;1.77;;;;;;;;;;4997642;28;20231;-70
2023/12/23 00:16:28;;;;;;;5.00;1.85;;;;;;;;;;4991969;28;20261;-70
2023/12/23 00:18:56;;;;;;;6.22;1.73;;;;;;;;;;5002236;28;20215;-70
2023/12/23 00:21:24;;;;;;;3.95;1.30;;;;;;;;;;4987736;28;20254;-70
2023/12/23 00:23:52;;;;;;;3.67;1.55;;;;;;;;;;4990704;28;20242;-70
2023/12/23 00:26:21;;;;;;;2.95;1.42;;;;;;;;;;5000696;28;20267;-70
2023/12/23 00:28:52;;;;;;;1.83;1.13;;;;;;;;;;4998302;28;20286;-69
2023/12/23 00:31:22;;;;;;;7.03;1.65;;;;;;;;;;4996856;28;20274;-69
2023/12/23 00:33:54;;;;;;;5.40;1.80;;;;;;;;;;4996368;28;20290;-69
2023/12/23 00:36:43;;;;;;;5.68;1.63;;;;;;;;;;4994572;28;20210;-70
2023/12/23 00:39:15;;;;;;;6.22;1.55;;;;;;;;;;4995684;28;20211;-70
2023/12/23 00:41:43;;;;;;;5.00;1.42;;;;;;;;;;4974110;28;20211;-70
2023/12/23 00:44:11;;;;;;;5.60;1.23;;;;;;;;;;4981519;28;20218;-70
2023/12/23 00:46:39;;;;;;;5.28;1.40;;;;;;;;;;4978149;28;20218;-69
2023/12/23 00:49:09;;;;;;;5.97;2.08;;;;;;;;;;4980247;28;20211;-69
2023/12/23 00:51:36;;;;;;;3.03;1.23;;;;;;;;;;4976060;28;20202;-69
2023/12/23 00:54:05;;;;;;;2.83;1.60;;;;;;;;;;4998737;28;20697;-69
2023/12/23 00:56:33;;;;;;;13.52;1.70;;;;;;;;;;4998828;28;20199;-70
2023/12/23 00:59:00;;;;;;;3.53;1.15;;;;;;;;;;5001921;28;20337;-69
2023/12/23 01:01:29;;;;;;;8.88;1.83;;;;;;;;;;4978318;28;20200;-70
2023/12/23 01:03:57;;;;;;;2.97;1.42;;;;;;;;;;4980111;28;20302;-69
2023/12/23 01:06:26;;;;;;;6.63;1.80;;;;;;;;;;4990677;28;20207;-69
2023/12/23 01:08:54;;;;;;;5.68;2.28;;;;;;;;;;4996622;28;20654;-70
2023/12/23 01:11:22;;;;;;;6.88;2.30;;;;;;;;;;4997464;28;20277;-70
2023/12/23 01:13:50;;;;;;;3.38;1.40;;;;;;;;;;4966048;28;20191;-70
2023/12/23 01:16:18;;;;;;;6.15;1.70;;;;;;;;;;4996500;28;20680;-70
2023/12/23 01:18:48;;;;;;;3.58;1.65;;;;;;;;;;4997602;28;20218;-70
2023/12/23 01:21:20;;;;;;;4.35;2.00;;;;;;;;;;4985317;28;20210;-70
2023/12/23 01:23:49;;;;;;;3.70;1.83;;;;;;;;;;4984354;28;20190;-70
2023/12/23 01:26:17;;;;;;;4.80;1.70;;;;;;;;;;4977951;28;20204;-70
2023/12/23 01:28:45;;;;;;;6.30;2.05;;;;;;;;;;4978206;28;20260;-70
2023/12/23 01:31:13;;;;;;;9.60;2.42;;;;;;;;;;4976698;28;20211;-70
2023/12/23 01:33:40;;;;;;;5.13;2.00;;;;;;;;;;4977178;28;20568;-71
2023/12/23 01:36:08;;;;;;;8.20;2.00;;;;;;;;;;4992848;28;20195;-70
2023/12/23 01:38:36;;;;;;;4.85;1.63;;;;;;;;;;4993722;28;20278;-70
2023/12/23 01:41:06;;;;;;;8.15;1.85;;;;;;;;;;4994015;28;20199;-70
2023/12/23 01:43:35;;;;;;;7.03;1.42;;;;;;;;;;4996782;28;20207;-70
2023/12/23 01:46:03;;;;;;;3.90;1.42;;;;;;;;;;4996290;28;20195;-70
2023/12/23 01:48:33;;;;;;;4.90;2.15;;;;;;;;;;4980112;28;20211;-71
2023/12/23 01:51:01;;;;;;;3.50;1.52;;;;;;;;;;4994711;28;20205;-70
2023/12/23 01:53:30;;;;;;;2.38;1.40;;;;;;;;;;4979060;28;20230;-70
2023/12/23 01:55:59;;;;;;;7.15;1.60;;;;;;;;;;4995095;28;20210;-70
2023/12/23 01:58:29;;;;;;;8.07;2.30;;;;;;;;;;4986790;28;20210;-70
2023/12/23 02:00:58;;;;;;;1.98;1.70;;;;;;;;;;4974765;28;20678;-70
2023/12/23 02:03:26;;;;;;;3.35;1.35;;;;;;;;;;4977841;28;20203;-69
2023/12/23 02:05:54;;;;;;;3.65;1.50;;;;;;;;;;4981084;28;20195;-70
2023/12/23 02:08:23;;;;;;;6.57;1.58;;;;;;;;;;4978118;28;20203;-70
2023/12/23 02:10:55;;;;;;;6.15;2.35;;;;;;;;;;4993109;28;20772;-71
2023/12/23 02:13:26;;;;;;;5.93;2.30;;;;;;;;;;4995839;28;20217;-70
2023/12/23 02:15:56;;;;;;;8.73;2.20;;;;;;;;;;4980890;28;20190;-69
2023/12/23 02:18:24;;;;;;;8.15;1.60;;;;;;;;;;4996246;28;20207;-70
2023/12/23 02:20:54;;;;;;;7.43;1.90;;;;;;;;;;4995745;28;20221;-70
2023/12/23 02:23:22;;;;;;;7.65;1.33;;;;;;;;;;4995743;28;20680;-69
2023/12/23 02:25:53;;;;;;;3.03;1.33;;;;;;;;;;4979643;28;20332;-70
2023/12/23 02:28:22;;;;;;;7.18;2.15;;;;;;;;;;4982407;28;20282;-69
2023/12/23 02:30:51;;;;;;;6.35;1.52;;;;;;;;;;4977716;28;20205;-71
2023/12/23 02:33:20;;;;;;;5.90;1.65;;;;;;;;;;4978069;28;20266;-70
2023/12/23 02:35:52;;;;;;;4.72;1.90;;;;;;;;;;4980092;28;20196;-70
2023/12/23 02:38:23;;;;;;;4.00;1.65;;;;;;;;;;4976766;28;20187;-70
2023/12/23 02:40:51;;;;;;;4.88;1.90;;;;;;;;;;4976565;28;20211;-70
2023/12/23 02:43:19;;;;;;;8.77;1.80;;;;;;;;;;4994713;28;20722;-69
2023/12/23 02:45:48;;;;;;;5.95;1.55;;;;;;;;;;4991658;28;20289;-69
2023/12/23 02:48:16;;;;;;;5.78;2.00;;;;;;;;;;4995694;28;20198;-70
2023/12/23 02:50:44;;;;;;;2.75;1.55;;;;;;;;;;4990756;28;20259;-70
2023/12/23 02:53:12;;;;;;;4.50;1.65;;;;;;;;;;4995688;28;20355;-69
2023/12/23 02:55:42;;;;;;;6.32;1.88;;;;;;;;;;4994804;28;20610;-70
2023/12/23 02:58:10;;;;;;;3.55;1.45;;;;;;;;;;4990218;28;20263;-70
2023/12/23 03:00:39;;;;;;;5.78;2.00;;;;;;;;;;4988416;28;20211;-69
2023/12/23 03:03:10;;;;;;;5.20;1.73;;;;;;;;;;4976013;28;20195;-69
2023/12/23 03:05:38;;;;;;;6.40;1.90;;;;;;;;;;4975171;28;20633;-69
2023/12/23 03:08:06;;;;;;;5.38;1.92;;;;;;;;;;4975558;28;20666;-69
2023/12/23 03:10:34;;;;;;;6.25;1.60;;;;;;;;;;4976444;28;20672;-69
2023/12/23 03:13:04;;;;;;;6.68;1.60;;;;;;;;;;4975602;28;20254;-69
2023/12/23 03:15:44;;;;;;;9.18;2.10;;;;;;;;;;4957704;28;20699;-69
2023/12/23 03:18:12;;;;;;;3.92;2.20;;;;;;;;;;4974347;28;20278;-69
2023/12/23 03:20:40;;;;;;;5.68;1.50;;;;;;;;;;4975802;28;20215;-70
2023/12/23 03:23:09;;;;;;;7.25;1.80;;;;;;;;;;4975999;28;20278;-69
2023/12/23 03:25:37;;;;;;;8.95;1.42;;;;;;;;;;4975530;28;20279;-69
2023/12/23 03:28:07;;;;;;;6.07;1.60;;;;;;;;;;4974227;28;20252;-69
2023/12/23 03:30:36;;;;;;;7.43;2.00;;;;;;;;;;4958876;28;20192;-69
2023/12/23 03:33:04;;;;;;;3.30;1.83;;;;;;;;;;4974830;28;20203;-69
2023/12/23 03:35:33;;;;;;;6.30;1.90;;;;;;;;;;4974851;28;20199;-69
2023/12/23 03:38:01;;;;;;;5.65;1.65;;;;;;;;;;4975882;28;20290;-70
2023/12/23 03:40:29;;;;;;;4.90;1.48;;;;;;;;;;4974890;28;20219;-69
2023/12/23 03:42:57;;;;;;;3.33;1.42;;;;;;;;;;4973815;28;20214;-69
2023/12/23 03:45:27;;;;;;;4.53;1.75;;;;;;;;;;4975474;28;20284;-69
2023/12/23 03:47:55;;;;;;;11.45;2.30;;;;;;;;;;4975134;28;20271;-69
2023/12/23 03:50:23;;;;;;;3.50;1.80;;;;;;;;;;4975724;28;20275;-70
2023/12/23 03:52:51;;;;;;;4.53;1.63;;;;;;;;;;4975599;28;20263;-70
2023/12/23 03:55:21;;;;;;;3.33;1.33;;;;;;;;;;4975596;28;20282;-69
2023/12/23 03:57:49;;;;;;;7.10;2.00;;;;;;;;;;4974193;28;20270;-69
2023/12/23 04:00:18;;;;;;;4.90;2.03;;;;;;;;;;4975458;28;20227;-69
2023/12/23 04:02:49;;;;;;;8.63;2.15;;;;;;;;;;4973101;28;20281;-69
2023/12/23 04:05:17;;;;;;;3.28;1.77;;;;;;;;;;4987859;28;20298;-70
2023/12/23 04:07:48;;;;;;;4.30;1.85;;;;;;;;;;4975012;28;20417;-69
2023/12/23 04:10:16;;;;;;;1.70;1.60;;;;;;;;;;4976380;28;20270;-70
2023/12/23 04:12:45;;;;;;;3.15;1.85;;;;;;;;;;4983650;28;20207;-69
2023/12/23 04:15:13;;;;;;;7.32;2.00;;;;;;;;;;4976432;28;20258;-69
2023/12/23 04:17:42;;;;;;;6.22;2.10;;;;;;;;;;4982015;28;20203;-70
2023/12/23 04:20:12;;;;;;;7.80;2.50;;;;;;;;;;4991771;28;20329;-70
2023/12/23 04:22:44;;;;;;;3.83;1.67;;;;;;;;;;4983223;28;20198;-71
2023/12/23 04:25:12;;;;;;;5.93;2.53;;;;;;;;;;4994962;28;20246;-70
2023/12/23 04:27:41;;;;;;;5.68;1.98;;;;;;;;;;4982749;28;20310;-71
2023/12/23 04:30:10;;;;;;;6.70;2.15;;;;;;;;;;4977903;28;20210;-69
2023/12/23 04:32:38;;;;;;;3.15;1.75;;;;;;;;;;4991227;28;20632;-69
2023/12/23 04:35:07;;;;;;;4.07;1.98;;;;;;;;;;4994778;28;20285;-69
2023/12/23 04:37:41;;;;;;;6.38;2.00;;;;;;;;;;4993471;28;20282;-69
2023/12/23 04:40:10;;;;;;;5.85;2.45;;;;;;;;;;4985021;28;20274;-69
2023/12/23 04:42:39;;;;;;;8.10;1.70;;;;;;;;;;4992849;28;20285;-69
2023/12/23 04:45:09;;;;;;;7.32;1.70;;;;;;;;;;4967601;28;20246;-69
2023/12/23 04:47:38;;;;;;;3.42;1.30;;;;;;;;;;4980858;28;20323;-69
2023/12/23 04:50:07;;;;;;;3.63;1.42;;;;;;;;;;4994620;28;20492;-69
2023/12/23 04:52:37;;;;;;;2.10;1.70;;;;;;;;;;4993571;28;20266;-70
2023/12/23 04:55:08;;;;;;;5.88;1.58;;;;;;;;;;4993333;28;20289;-69
2023/12/23 04:57:36;;;;;;;7.82;1.73;;;;;;;;;;4993729;28;20764;-69
2023/12/23 05:00:05;;;;;;;3.75;2.00;;;;;;;;;;4976915;28;20202;-69
2023/12/23 05:02:34;;;;;;;3.63;1.38;;;;;;;;;;4975577;28;20215;-69
2023/12/23 05:05:08;;;;;;;2.83;1.75;;;;;;;;;;4993039;28;20238;-68
2023/12/23 05:07:38;;;;;;;2.38;2.03;;;;;;;;;;4993266;28;20210;-69
2023/12/23 05:10:10;;;;;;;7.80;1.85;;;;;;;;;;4994241;28;20244;-68
2023/12/23 05:12:38;;;;;;;2.42;1.70;;;;;;;;;;4980339;28;20313;-68
2023/12/23 05:15:07;;;;;;;2.22;1.30;;;;;;;;;;4975958;28;20278;-69
2023/12/23 05:17:36;;;;;;;2.08;1.40;;;;;;;;;;4986843;28;20380;-69
2023/12/23 05:20:05;;;;;;;4.45;1.55;;;;;;;;;;4992870;28;20262;-69
2023/12/23 05:22:33;;;;;;;4.07;1.90;;;;;;;;;;4987623;28;20275;-69
2023/12/23 05:25:04;;;;;;;1.98;1.25;;;;;;;;;;4989247;28;20274;-68
2023/12/23 05:27:32;;;;;;;4.78;1.63;;;;;;;;;;4976045;28;20273;-69
2023/12/23 05:30:00;;;;;;;1.92;1.48;;;;;;;;;;4983929;28;20682;-69
2023/12/23 05:32:29;;;;;;;8.90;2.30;;;;;;;;;;4993971;28;20277;-68
2023/12/23 05:34:57;;;;;;;9.43;2.33;;;;;;;;;;4982404;28;20277;-69
2023/12/23 05:37:25;;;;;;;3.35;1.30;;;;;;;;;;4997821;28;20254;-69
2023/12/23 05:39:53;;;;;;;2.30;1.33;;;;;;;;;;4997882;28;20338;-69
2023/12/23 05:42:25;;;;;;;4.60;1.67;;;;;;;;;;4989272;28;20257;-69
2023/12/23 05:44:53;;;;;;;2.47;1.20;;;;;;;;;;4986526;28;20294;-69
2023/12/23 05:47:21;;;;;;;7.97;2.03;;;;;;;;;;4983720;28;20336;-69
2023/12/23 05:49:49;;;;;;;5.32;1.80;;;;;;;;;;4979952;28;20258;-70
2023/12/23 05:52:18;;;;;;;4.45;1.85;;;;;;;;;;4989971;28;20254;-69
2023/12/23 05:54:46;;;;;;;8.57;1.90;;;;;;;;;;4981885;28;20281;-69
2023/12/23 05:57:14;;;;;;;2.75;1.95;;;;;;;;;;4979745;28;20294;-69
2023/12/23 05:59:44;;;;;;;6.82;2.22;;;;;;;;;;4994039;28;20277;-69
2023/12/23 06:02:12;;;;;;;2.38;1.50;;;;;;;;;;4981728;28;20268;-70
2023/12/23 06:04:40;;;;;;;4.88;1.40;;;;;;;;;;4998465;28;20784;-70
2023/12/23 06:07:08;;;;;;;3.90;1.77;;;;;;;;;;4997046;28;20282;-70
2023/12/23 06:09:36;;;;;;;3.15;1.63;;;;;;;;;;4987990;28;20290;-69
2023/12/23 06:12:05;;;;;;;3.60;1.30;;;;;;;;;;4991657;28;20285;-69
2023/12/23 06:14:33;;;;;;;3.47;1.42;;;;;;;;;;4997329;28;20671;-70
2023/12/23 06:17:03;;;;;;;6.18;2.10;;;;;;;;;;4996156;28;20270;-69
2023/12/23 06:19:31;;;;;;;3.55;1.73;;;;;;;;;;4997284;28;20281;-70
2023/12/23 06:21:59;;;;;;;4.43;1.88;;;;;;;;;;4997219;28;20658;-69
2023/12/23 06:24:28;;;;;;;4.50;2.28;;;;;;;;;;4994744;28;20285;-70
2023/12/23 06:26:56;;;;;;;4.45;2.25;;;;;;;;;;4973054;28;20282;-69
2023/12/23 06:29:24;;;;;;;5.85;2.03;;;;;;;;;;4996373;28;20270;-70
2023/12/23 06:31:52;;;;;;;9.70;1.70;;;;;;;;;;4977595;28;20255;-70
2023/12/23 06:34:22;;;;;;;1.92;1.83;;;;;;;;;;4989907;28;20701;-70
2023/12/23 06:36:50;;;;;;;3.08;1.67;;;;;;;;;;4997693;28;20278;-69
2023/12/23 06:39:18;;;;;;;2.53;1.65;;;;;;;;;;4997434;28;20286;-70
2023/12/23 06:41:47;;;;;;;19.67;1.98;;;;;;;;;;4965357;28;20298;-70
2023/12/23 06:44:15;;;;;;;4.60;1.98;;;;;;;;;;4989432;28;20602;-69
2023/12/23 06:46:43;;;;;;;5.40;2.00;;;;;;;;;;4998776;28;20282;-69
2023/12/23 06:49:12;;;;;;;6.82;2.00;;;;;;;;;;4996746;28;20254;-71
2023/12/23 06:51:41;;;;;;;2.10;1.90;;;;;;;;;;4996440;28;20203;-69
2023/12/23 06:54:10;;;;;;;4.07;2.00;;;;;;;;;;4980013;28;20286;-69
2023/12/23 06:56:39;;;;;;;4.68;2.33;;;;;;;;;;4996321;28;20302;-70
2023/12/23 06:59:09;;;;;;;2.10;1.83;;;;;;;;;;4995939;28;20289;-71
2023/12/23 07:01:38;;;;;;;6.28;1.83;;;;;;;;;;4962521;28;20210;-70
2023/12/23 07:04:07;;;;;;;4.20;1.98;;;;;;;;;;4987268;28;20294;-70
2023/12/23 07:06:36;;;;;;;3.05;1.83;;;;;;;;;;4975964;28;20282;-70
2023/12/23 07:09:06;;;;;;;7.05;2.22;;;;;;;;;;4994440;28;20666;-70
2023/12/23 07:11:34;;;;;;;4.82;3.20;;;;;;;;;;4997282;28;20254;-70
2023/12/23 07:14:03;;;;;;;4.38;2.38;;;;;;;;;;4996125;28;20266;-70
2023/12/23 07:16:31;;;;;;;10.63;7.47;;;;;;;;;;4982883;28;20720;-70
2023/12/23 07:18:59;;;;;;;5.63;2.95;;;;;;;;;;4995539;28;20293;-69
2023/12/23 07:21:28;;;;;;;3.33;1.45;;;;;;;;;;4998126;28;20258;-70
2023/12/23 07:23:56;;;;;;;3.60;1.55;;;;;;;;;;4990724;28;20278;-69
2023/12/23 07:26:26;;;;;;;2.63;1.70;;;;;;;;;;4988197;28;20278;-70
2023/12/23 07:28:54;;;;;;;2.40;1.35;;;;;;;;;;4978596;28;20275;-70
2023/12/23 07:31:26;;;;;;;3.88;1.60;;;;;;;;;;4980033;28;20281;-70
2023/12/23 07:33:54;;;;;;;1.65;1.20;;;;;;;;;;4984371;28;20619;-69
2023/12/23 07:36:22;;;;;;;3.97;1.75;;;;;;;;;;4988328;28;20289;-70
2023/12/23 07:38:51;;;;;;;1.23;1.13;;;;;;;;;;4996216;28;20262;-71
2023/12/23 07:41:19;;;;;;;6.60;1.40;;;;;;;;;;4996318;28;20285;-69
2023/12/23 07:43:49;;;;;;;1.70;1.08;;;;;;;;;;4996234;28;20310;-69
2023/12/23 07:46:18;;;;;;;4.95;1.60;;;;;;;;;;4996129;28;20262;-70
2023/12/23 07:48:46;;;;;;;3.38;1.20;;;;;;;;;;4983914;28;20273;-70
2023/12/23 07:51:14;;;;;;;2.80;1.52;;;;;;;;;;4980275;28;20422;-70
2023/12/23 07:53:43;;;;;;;8.88;2.17;;;;;;;;;;4980505;28;20289;-70
2023/12/23 07:56:11;;;;;;;5.28;1.77;;;;;;;;;;4996401;28;20294;-71
2023/12/23 07:58:39;;;;;;;8.00;2.28;;;;;;;;;;4996876;28;20679;-70
2023/12/23 08:01:09;;;;;;;1.70;1.60;;;;;;;;;;4995851;28;20229;-70
2023/12/23 08:03:37;;;;;;;6.30;1.80;;;;;;;;;;4992508;28;20317;-70
2023/12/23 08:06:06;;;;;;;2.25;2.00;;;;;;;;;;4979184;28;20202;-71
2023/12/23 08:08:34;;;;;;;8.95;2.50;;;;;;;;;;4994461;28;20251;-71
2023/12/23 08:11:02;;;;;;;2.10;1.90;;;;;;;;;;4996785;28;20277;-71
2023/12/23 08:13:31;;;;;;;3.80;2.70;;;;;;;;;;4995235;28;20618;-72
2023/12/23 08:15:59;;;;;;;3.15;1.65;;;;;;;;;;4995750;28;20289;-70
2023/12/23 08:18:28;;;;;;;1.60;1.50;;;;;;;;;;4994074;28;20286;-71
2023/12/23 08:20:57;;;;;;;4.53;1.60;;;;;;;;;;4992338;28;20278;-71
2023/12/23 08:23:25;;;;;;;1.50;1.35;;;;;;;;;;4981925;28;20222;-71
2023/12/23 08:25:53;;;;;;;2.25;1.50;;;;;;;;;;4997521;28;20332;-72
2023/12/23 08:28:21;;;;;;;4.32;2.00;;;;;;;;;;4998187;28;20289;-72
2023/12/23 08:30:50;;;;;;;5.82;2.22;;;;;;;;;;4998281;28;20278;-72
2023/12/23 08:33:18;;;;;;;1.60;1.50;;;;;;;;;;4996973;28;20286;-71
2023/12/23 08:35:47;;;;;;;1.17;1.17;;;;;;;;;;4989806;28;20286;-71
2023/12/23 08:38:16;;;;;;;2.25;1.08;;;;;;;;;;4997665;28;20282;-72
2023/12/23 08:40:44;;;;;;;2.30;1.40;;;;;;;;;;4996925;28;20353;-71
2023/12/23 08:43:13;;;;;;;1.85;1.75;;;;;;;;;;4993559;28;20305;-72
2023/12/23 08:45:41;;;;;;;2.75;1.65;;;;;;;;;;4979518;28;20282;-72
2023/12/23 08:48:09;;;;;;;1.38;1.23;;;;;;;;;;4996231;28;20258;-71
2023/12/23 08:50:37;;;;;;;2.45;1.30;;;;;;;;;;4997628;28;20281;-71
2023/12/23 08:53:07;;;;;;;5.03;2.40;;;;;;;;;;4995888;28;20295;-72
2023/12/23 08:55:36;;;;;;;5.97;2.60;;;;;;;;;;4998704;28;20402;-71
2023/12/23 08:58:04;;;;;;;2.10;1.92;;;;;;;;;;5006698;28;20226;-71
2023/12/23 09:00:32;;;;;;;2.35;2.13;;;;;;;;;;5006266;28;20230;-72
2023/12/23 09:03:00;;;;;;;1.83;1.13;;;;;;;;;;5006147;28;20253;-72
2023/12/23 09:05:29;;;;;;;2.72;1.50;;;;;;;;;;5007648;28;20254;-72
2023/12/23 09:07:56;;;;;;;4.57;1.50;;;;;;;;;;5011285;28;20299;-72
2023/12/23 09:10:25;;;;;;;1.98;1.50;;;;;;;;;;5009936;28;20214;-71
2023/12/23 09:12:54;;;;;;;1.73;1.63;;;;;;;;;;5010435;28;20226;-71
2023/12/23 09:15:22;;;;;;;1.00;1.00;;;;;;;;;;4992594;28;20269;-71
2023/12/23 09:17:51;;;;;;;1.77;1.40;;;;;;;;;;5010571;28;20778;-72
2023/12/23 09:20:19;;;;;;;1.10;1.10;;;;;;;;;;5010005;28;20711;-71
2023/12/23 09:22:47;;;;;;;1.38;1.10;;;;;;;;;;4993441;28;20272;-70
2023/12/23 09:25:16;;;;;;;1.60;1.50;;;;;;;;;;5011523;28;20253;-71
2023/12/23 09:27:45;;;;;;;1.50;1.40;;;;;;;;;;5011095;28;20237;-70
2023/12/23 09:30:14;;;;;;;3.88;1.55;;;;;;;;;;5010468;28;20235;-70
2023/12/23 09:32:42;;;;;;;1.10;1.00;;;;;;;;;;5012130;28;20227;-72
2023/12/23 09:35:10;;;;;;;1.67;0.90;;;;;;;;;;5009274;28;20240;-70
2023/12/23 09:37:38;;;;;;;3.38;1.60;;;;;;;;;;5008479;28;20223;-69
2023/12/23 09:40:07;;;;;;;1.00;0.90;;;;;;;;;;5009270;28;20230;-69
2023/12/23 09:42:35;;;;;;;1.55;1.00;;;;;;;;;;5010048;28;20223;-70
2023/12/23 09:45:05;;;;;;;1.40;1.30;;;;;;;;;;4999908;28;20246;-71
2023/12/23 09:47:34;;;;;;;2.75;2.55;;;;;;;;;;5010459;28;20226;-70
2023/12/23 09:50:02;;;;;;;5.93;1.77;;;;;;;;;;5013619;28;20249;-69
2023/12/23 09:52:31;;;;;;;2.45;1.38;;;;;;;;;;5013979;28;21004;-69
2023/12/23 09:55:00;;;;;;;3.50;1.25;;;;;;;;;;5009579;28;20229;-70
2023/12/23 09:57:28;;;;;;;1.08;1.00;;;;;;;;;;5013759;28;20197;-71
2023/12/23 09:59:57;;;;;;;2.10;1.10;;;;;;;;;;5014495;28;20218;-73
2023/12/23 10:02:26;;;;;;;0.88;0.88;;;;;;;;;;5012664;28;20241;-72
2023/12/23 10:04:54;;;;;;;1.00;1.00;;;;;;;;;;4991154;28;20270;-71
2023/12/23 10:07:23;;;;;;;1.27;1.10;;;;;;;;;;5025615;22;20243;-81
2023/12/23 10:09:51;;;;;;;0.80;0.80;;;;;;;;;;5012473;28;20248;-86
2023/12/23 10:12:22;;;;;;;1.00;1.00;;;;;;;;;;5001499;28;20229;-84
2023/12/23 10:14:51;;;;;;;1.42;1.20;;;;;;;;;;5014183;28;20249;-86
2023/12/23 10:17:19;;;;;;;1.10;1.10;;;;;;;;;;5060921;28;20214;-86
2023/12/23 10:19:49;;;;;;;1.65;1.00;;;;;;;;;;4998821;28;20206;-84
2023/12/23 10:22:18;;;;;;;1.08;0.80;;;;;;;;;;4999110;28;20215;-86
2023/12/23 10:24:49;;;;;;;0.70;0.70;;;;;;;;;;4990130;22;20545;-72
2023/12/23 10:27:17;;;;;;;1.33;1.23;;;;;;;;;;4997558;28;20187;-70
2023/12/23 10:29:49;;;;;;;1.15;1.08;;;;;;;;;;4995955;28;20254;-70
2023/12/23 10:32:23;;;;;;;0.70;0.70;;;;;;;;;;5006054;28;20225;-69
2023/12/23 10:34:56;;;;;;;3.08;1.73;;;;;;;;;;5007335;28;20205;-70
2023/12/23 10:37:25;;;;;;;1.48;0.98;;;;;;;;;;5003871;28;20194;-69
2023/12/23 10:39:57;;;;;;;0.90;0.90;;;;;;;;;;4994485;28;20294;-70
2023/12/23 10:42:25;;;;;;;1.15;1.05;;;;;;;;;;4975601;28;20270;-71
2023/12/23 10:44:54;;;;;;;1.70;1.00;;;;;;;;;;4979462;28;20309;-71
2023/12/23 10:47:23;;;;;;;1.00;1.00;;;;;;;;;;5002945;28;20206;-71
2023/12/23 10:49:53;;;;;;;1.23;0.77;;;;;;;;;;5017787;28;20278;-70
2023/12/23 10:52:21;;;;;;;1.70;1.50;;;;;;;;;;5020818;28;20226;-68
2023/12/23 10:54:50;;;;;;;1.00;1.00;;;;;;;;;;5006689;28;20331;-71
2023/12/23 10:57:19;;;;;;;2.08;1.38;;;;;;;;;;4982874;28;20199;-68
2023/12/23 10:59:47;;;;;;;0.90;0.90;;;;;;;;;;5005233;28;20259;-68
2023/12/23 11:02:18;;;;;;;1.85;1.42;;;;;;;;;;5007474;28;20277;-69
2023/12/23 11:04:47;;;;;;;1.90;0.80;;;;;;;;;;4997258;28;20206;-70
2023/12/23 11:07:18;;;;;;;2.10;2.00;;;;;;;;;;4980300;28;20199;-70
2023/12/23 11:09:48;;;;;;;2.65;2.55;;;;;;;;;;4998563;28;20254;-71
2023/12/23 11:12:17;;;;;;;3.83;1.40;;;;;;;;;;5003915;28;20202;-69
2023/12/23 11:14:46;;;;;;;1.65;1.40;;;;;;;;;;5013762;28;20352;-70
2023/12/23 11:17:24;;;;;;;1.65;1.55;;;;;;;;;;5006011;28;20288;-66
2023/12/23 11:20:29;;;;;;;1.30;1.30;;;;;;;;;;4993282;28;20199;-66
2023/12/23 11:22:58;;;;;;;1.17;1.15;;;;;;;;;;4989628;28;20213;-66
2023/12/23 11:25:37;;;;;;;2.08;1.98;;;;;;;;;;4990072;28;20241;-66
2023/12/23 11:28:09;;;;;;;1.27;1.20;;;;;;;;;;4996957;28;20566;-66
2023/12/23 11:30:39;;;;;;;1.48;1.38;;;;;;;;;;5008961;28;20202;-65
2023/12/23 11:33:09;;;;;;;1.38;1.27;;;;;;;;;;5010630;28;20241;-68
2023/12/23 11:35:39;;;;;;;1.58;1.08;;;;;;;;;;5010846;28;20648;-66
2023/12/23 11:38:10;;;;;;;1.48;1.38;;;;;;;;;;4997849;28;20201;-66
2023/12/23 11:40:39;;;;;;;1.10;1.10;;;;;;;;;;4997842;28;20194;-67
2023/12/23 11:43:08;;;;;;;1.35;1.25;;;;;;;;;;4981480;28;20199;-67
2023/12/23 11:45:38;;;;;;;1.10;1.00;;;;;;;;;;4977460;28;20226;-67
2023/12/23 11:48:07;;;;;;;2.00;1.52;;;;;;;;;;5009362;28;20210;-67
2023/12/23 11:50:35;;;;;;;1.20;1.10;;;;;;;;;;5008054;28;20212;-67
2023/12/23 11:53:03;;;;;;;1.33;1.25;;;;;;;;;;4998220;28;20213;-68
2023/12/23 11:55:33;;;;;;;2.45;0.88;;;;;;;;;;5003871;28;20206;-67
2023/12/23 11:58:01;;;;;;;2.15;1.00;;;;;;;;;;4999727;28;20633;-67
2023/12/23 12:00:36;;;;;;;1.10;1.10;;;;;;;;;;4998905;28;20206;-67
2023/12/23 12:03:05;;;;;;;0.80;0.80;;;;;;;;;;5008009;28;20625;-67
2023/12/23 12:05:34;;;;;;;0.90;0.90;;;;;;;;;;5002882;28;20226;-67
2023/12/23 12:08:02;;;;;;;2.05;0.80;;;;;;;;;;4998534;28;20213;-67
2023/12/23 12:10:30;;;;;;;1.10;0.80;;;;;;;;;;4997153;28;20206;-67
2023/12/23 12:12:59;;;;;;;0.88;0.88;;;;;;;;;;5002437;28;20205;-67
2023/12/23 12:15:27;;;;;;;1.60;1.23;;;;;;;;;;5005824;28;20209;-67
2023/12/23 12:17:55;;;;;;;0.80;0.68;;;;;;;;;;5003987;28;20213;-67
2023/12/23 12:20:23;;;;;;;0.85;0.80;;;;;;;;;;4991167;28;20207;-67
2023/12/23 12:22:51;;;;;;;0.60;0.60;;;;;;;;;;4989178;28;20225;-67
2023/12/23 12:25:19;;;;;;;1.98;1.20;;;;;;;;;;4989493;28;20239;-66
2023/12/23 12:27:47;;;;;;;0.73;0.73;;;;;;;;;;4999976;28;20194;-66
2023/12/23 12:30:16;;;;;;;0.70;0.70;;;;;;;;;;5008296;28;20854;-67
2023/12/23 12:32:46;;;;;;;0.88;0.88;;;;;;;;;;4992762;28;20205;-66
2023/12/23 12:35:14;;;;;;;7.50;4.70;;;;;;;;;;5008466;28;20206;-67
2023/12/23 12:37:43;;;;;;;4.53;3.58;;;;;;;;;;4992650;28;20199;-66
2023/12/23 12:40:12;;;;;;;4.68;3.25;;;;;;;;;;5007360;28;20209;-69
2023/12/23 12:42:40;;;;;;;3.65;3.05;;;;;;;;;;4984249;28;20202;-66
2023/12/23 12:45:08;;;;;;;2.75;2.45;;;;;;;;;;5004277;28;20226;-66
2023/12/23 12:47:39;;;;;;;2.13;1.83;;;;;;;;;;5003659;28;20197;-66
2023/12/23 12:50:07;;;;;;;3.63;2.63;;;;;;;;;;5003838;28;20644;-66
2023/12/23 12:52:36;;;;;;;4.05;3.22;;;;;;;;;;5007111;28;20205;-67
2023/12/23 12:55:05;;;;;;;3.88;3.47;;;;;;;;;;5010333;28;20198;-66
2023/12/23 12:57:33;;;;;;;1.50;1.40;;;;;;;;;;4998762;28;20203;-67
2023/12/23 13:00:01;;;;;;;4.43;3.35;;;;;;;;;;4992645;28;20214;-67
2023/12/23 13:02:31;;;;;;;2.25;2.15;;;;;;;;;;4994566;28;20199;-66
2023/12/23 13:05:01;;;;;;;1.85;1.75;;;;;;;;;;5011163;28;20202;-66
2023/12/23 13:07:29;;;;;;;2.17;1.90;;;;;;;;;;5004619;28;20202;-66
2023/12/23 13:09:57;;;;;;;1.30;1.30;;;;;;;;;;4994240;28;20591;-66
2023/12/23 13:12:26;;;;;;;1.25;1.25;;;;;;;;;;4998918;28;20206;-67
2023/12/23 13:14:57;;;;;;;1.35;1.25;;;;;;;;;;5009495;28;20190;-67
2023/12/23 13:17:26;;;;;;;1.15;1.05;;;;;;;;;;4999584;28;20200;-67
2023/12/23 13:19:54;;;;;;;2.10;2.00;;;;;;;;;;4978796;28;20262;-67
2023/12/23 13:22:23;;;;;;;9.00;6.45;;;;;;;;;;4987536;28;20534;-67
2023/12/23 13:24:52;;;;;;;15.85;8.65;;;;;;;;;;4980261;28;20992;-67
2023/12/23 13:27:20;;;;;;;8.73;6.55;;;;;;;;;;4999804;28;20213;-67
2023/12/23 13:29:48;;;;;;;8.05;5.95;;;;;;;;;;4975525;28;20206;-67
2023/12/23 13:32:16;;;;;;;7.30;6.80;;;;;;;;;;4999115;28;20209;-67
2023/12/23 13:34:45;;;;;;;2.97;2.88;;;;;;;;;;5006191;28;20194;-67
2023/12/23 13:37:13;;;;;;;3.60;1.83;;;;;;;;;;5002183;28;20198;-67
2023/12/23 13:39:42;;;;;;;1.85;1.73;;;;;;;;;;4998121;28;20206;-69
2023/12/23 13:42:11;;;;;;;1.88;1.77;;;;;;;;;;5007009;28;20250;-69
2023/12/23 13:44:39;;;;;;;2.08;1.95;;;;;;;;;;5009543;28;20228;-67
2023/12/23 13:47:07;;;;;;;4.05;1.25;;;;;;;;;;4993441;28;20212;-66
2023/12/23 13:49:35;;;;;;;2.10;1.60;;;;;;;;;;5004368;28;20576;-69
2023/12/23 13:52:03;;;;;;;1.50;1.40;;;;;;;;;;5004360;28;20857;-68
2023/12/23 13:54:32;;;;;;;1.35;1.25;;;;;;;;;;5001904;28;20206;-67
2023/12/23 13:57:01;;;;;;;1.20;1.10;;;;;;;;;;4999239;28;20198;-67
2023/12/23 13:59:30;;;;;;;1.15;1.08;;;;;;;;;;4994715;28;20207;-67
2023/12/23 14:01:58;;;;;;;0.90;0.80;;;;;;;;;;4995871;28;20221;-67
2023/12/23 14:04:26;;;;;;;1.05;0.80;;;;;;;;;;5001928;28;20212;-66
2023/12/23 14:06:54;;;;;;;1.95;1.10;;;;;;;;;;5009598;28;20262;-67
2023/12/23 14:09:23;;;;;;;1.10;1.00;;;;;;;;;;5009990;28;20212;-67
2023/12/23 14:11:51;;;;;;;1.05;0.95;;;;;;;;;;5010387;28;20460;-67
2023/12/23 14:14:20;;;;;;;0.80;0.80;;;;;;;;;;5001636;28;20208;-67
2023/12/23 14:16:49;;;;;;;4.05;1.30;;;;;;;;;;5005377;28;20199;-66
2023/12/23 14:19:17;;;;;;;0.93;0.93;;;;;;;;;;5010394;28;20210;-67
2023/12/23 14:21:45;;;;;;;1.23;1.20;;;;;;;;;;5010029;28;20206;-67
2023/12/23 14:24:14;;;;;;;1.20;1.10;;;;;;;;;;5004325;28;20213;-67
2023/12/23 14:26:42;;;;;;;1.75;1.00;;;;;;;;;;5002252;28;20242;-67
2023/12/23 14:29:10;;;;;;;0.98;0.98;;;;;;;;;;4983523;28;20198;-67
2023/12/23 14:31:40;;;;;;;0.80;0.80;;;;;;;;;;4999457;28;20318;-66
2023/12/23 14:34:08;;;;;;;2.17;1.10;;;;;;;;;;4992401;28;20213;-67
2023/12/23 14:36:36;;;;;;;1.80;1.00;;;;;;;;;;5010650;28;20205;-66
2023/12/23 14:39:04;;;;;;;2.45;0.93;;;;;;;;;;5001769;28;20203;-67
2023/12/23 14:41:33;;;;;;;0.75;0.75;;;;;;;;;;4988844;28;20198;-67
2023/12/23 14:44:01;;;;;;;0.80;0.80;;;;;;;;;;5005120;28;20350;-66
2023/12/23 14:46:29;;;;;;;2.70;1.75;;;;;;;;;;4997933;28;20219;-67
2023/12/23 14:48:58;;;;;;;8.88;5.07;;;;;;;;;;5000460;28;20202;-66
2023/12/23 14:51:27;;;;;;;28.80;10.50;;;;;;;;;;5001318;28;20198;-67
2023/12/23 14:53:55;;;;;;;14.15;6.10;;;;;;;;;;4999083;28;20198;-66